createdAt,value
2018-04-08T00:00:30.723Z,4.43
2018-04-08T00:02:59.007Z,4.57
2018-04-08T00:05:27.278Z,3.70
2018-04-08T00:07:55.587Z,4.23
2018-04-08T00:10:23.906Z,4.60
2018-04-08T00:12:52.146Z,3.93
2018-04-08T00:15:20.494Z,4.27
2018-04-08T00:17:48.774Z,3.90
2018-04-08T00:20:17.394Z,3.67
2018-04-08T00:22:45.779Z,3.60
2018-04-08T00:25:14.064Z,3.87
2018-04-08T00:27:42.349Z,3.90
2018-04-08T00:30:10.635Z,3.70
2018-04-08T00:32:38.908Z,4.03
2018-04-08T00:35:07.212Z,4.10
2018-04-08T00:37:35.468Z,4.00
2018-04-08T00:40:03.754Z,4.17
2018-04-08T00:42:32.799Z,4.10
2018-04-08T00:45:01.096Z,3.53
2018-04-08T00:47:29.364Z,4.33
2018-04-08T00:49:57.654Z,4.13
2018-04-08T00:52:25.996Z,4.37
2018-04-08T00:54:54.276Z,3.80
2018-04-08T00:57:22.539Z,4.30
2018-04-08T00:59:50.827Z,3.90
2018-04-08T01:02:19.174Z,4.40
2018-04-08T01:04:48.388Z,3.80
2018-04-08T01:07:16.666Z,4.20
2018-04-08T01:09:44.940Z,4.13
2018-04-08T01:12:13.247Z,4.07
2018-04-08T01:14:41.540Z,3.47
2018-04-08T01:17:09.885Z,3.47
2018-04-08T01:19:38.179Z,3.60
2018-04-08T01:22:06.463Z,3.63
2018-04-08T01:24:34.788Z,4.00
2018-04-08T01:27:03.071Z,3.93
2018-04-08T01:29:31.347Z,4.10
2018-04-08T01:31:59.656Z,4.40
2018-04-08T01:34:27.935Z,3.63
2018-04-08T01:36:56.253Z,3.93
2018-04-08T01:39:25.049Z,3.70
2018-04-08T01:41:53.991Z,4.20
2018-04-08T01:44:22.290Z,6.77
2018-04-08T01:46:50.580Z,5.10
2018-04-08T01:49:18.840Z,4.60
2018-04-08T01:51:47.180Z,5.10
2018-04-08T01:54:15.499Z,5.05
2018-04-08T01:56:43.768Z,4.50
2018-04-08T01:59:12.054Z,4.30
2018-04-08T02:01:40.328Z,4.10
2018-04-08T02:04:08.645Z,4.33
2018-04-08T02:06:36.922Z,4.37
2018-04-08T02:09:06.112Z,4.20
2018-04-08T02:11:34.375Z,3.90
2018-04-08T02:14:02.655Z,4.00
2018-04-08T02:16:30.934Z,3.92
2018-04-08T02:18:59.228Z,3.90
2018-04-08T02:21:27.478Z,4.13
2018-04-08T02:23:55.778Z,4.30
2018-04-08T02:26:24.123Z,4.30
2018-04-08T02:28:52.369Z,3.47
2018-04-08T02:31:20.635Z,3.85
2018-04-08T02:33:48.916Z,4.10
2018-04-08T02:36:17.214Z,3.50
2018-04-08T02:38:45.510Z,3.60
2018-04-08T02:41:14.045Z,3.85
2018-04-08T02:43:42.325Z,3.62
2018-04-08T02:46:10.585Z,3.87
2018-04-08T02:48:38.868Z,3.45
2018-04-08T02:51:07.137Z,3.80
2018-04-08T02:53:35.464Z,3.30
2018-04-08T02:56:03.728Z,3.43
2018-04-08T02:58:32.078Z,4.18
2018-04-08T03:01:00.345Z,3.37
2018-04-08T03:03:28.604Z,4.00
2018-04-08T03:05:56.870Z,3.77
2018-04-08T03:08:25.136Z,3.37
2018-04-08T03:10:53.415Z,4.00
2018-04-08T03:13:21.682Z,4.00
2018-04-08T03:15:49.969Z,3.90
2018-04-08T03:18:18.263Z,3.62
2018-04-08T03:20:46.510Z,3.77
2018-04-08T03:23:14.787Z,3.77
2018-04-08T03:25:43.103Z,3.73
2018-04-08T03:28:11.381Z,3.43
2018-04-08T03:30:39.669Z,4.10
2018-04-08T03:33:07.939Z,4.07
2018-04-08T03:35:36.227Z,3.30
2018-04-08T03:38:05.546Z,4.04
2018-04-08T03:40:33.844Z,3.80
2018-04-08T03:43:02.099Z,4.20
2018-04-08T03:45:30.409Z,4.10
2018-04-08T03:47:58.691Z,4.10
2018-04-08T03:50:27.064Z,3.60
2018-04-08T03:52:55.323Z,4.13
2018-04-08T03:55:23.667Z,3.87
2018-04-08T03:57:51.906Z,3.63
2018-04-08T04:00:20.206Z,4.20
2018-04-08T04:02:48.505Z,4.10
2018-04-08T04:05:16.800Z,4.80
2018-04-08T04:07:45.107Z,3.73
2018-04-08T04:10:13.383Z,3.97
2018-04-08T04:12:41.699Z,4.20
2018-04-08T04:15:09.971Z,4.25
2018-04-08T04:17:38.260Z,4.70
2018-04-08T04:20:18.371Z,4.20
2018-04-08T04:22:58.488Z,3.33
2018-04-08T04:28:30.807Z,3.60
2018-04-08T04:30:59.064Z,3.70
2018-04-08T04:33:27.400Z,3.90
2018-04-08T04:35:55.647Z,3.60
2018-04-08T04:38:23.976Z,3.53
2018-04-08T04:40:52.213Z,3.80
2018-04-08T04:43:20.516Z,3.60
2018-04-08T04:45:48.792Z,3.85
2018-04-08T04:48:17.088Z,3.85
2018-04-08T04:50:45.352Z,3.73
2018-04-08T04:53:13.636Z,3.60
2018-04-08T04:55:41.915Z,4.13
2018-04-08T04:58:10.221Z,3.90
2018-04-08T05:00:38.514Z,4.30
2018-04-08T05:03:07.111Z,4.83
2018-04-08T05:05:35.380Z,3.80
2018-04-08T05:08:03.687Z,4.30
2018-04-08T05:10:31.940Z,4.77
2018-04-08T05:13:00.250Z,3.90
2018-04-08T05:15:28.517Z,4.60
2018-04-08T05:17:56.803Z,4.37
2018-04-08T05:20:25.085Z,4.57
2018-04-08T05:22:53.376Z,4.50
2018-04-08T05:25:21.648Z,4.70
2018-04-08T05:27:49.953Z,4.10
2018-04-08T05:30:18.902Z,4.60
2018-04-08T05:32:47.203Z,4.80
2018-04-08T05:35:15.513Z,4.53
2018-04-08T05:37:43.781Z,4.20
2018-04-08T05:40:12.086Z,3.70
2018-04-08T05:42:40.350Z,4.40
2018-04-08T05:45:08.650Z,4.03
2018-04-08T05:47:36.932Z,4.07
2018-04-08T05:50:05.235Z,4.23
2018-04-08T05:52:33.510Z,4.10
2018-04-08T05:55:01.816Z,3.93
2018-04-08T05:57:30.077Z,3.67
2018-04-08T05:59:58.382Z,4.50
2018-04-08T06:02:26.658Z,4.40
2018-04-08T06:04:54.976Z,3.80
2018-04-08T06:07:23.237Z,4.00
2018-04-08T06:09:51.534Z,4.27
2018-04-08T06:12:19.819Z,4.73
2018-04-08T06:14:48.115Z,4.32
2018-04-08T06:17:16.373Z,4.50
2018-04-08T06:19:44.649Z,4.23
2018-04-08T06:22:12.933Z,4.00
2018-04-08T06:24:41.222Z,4.10
2018-04-08T06:27:09.480Z,4.37
2018-04-08T06:29:37.744Z,4.53
2018-04-08T06:32:06.058Z,4.50
2018-04-08T06:34:34.308Z,5.10
2018-04-08T06:37:02.587Z,4.93
2018-04-08T06:39:30.848Z,5.12
2018-04-08T06:41:59.140Z,5.70
2018-04-08T06:44:27.411Z,5.55
2018-04-08T06:46:55.707Z,4.70
2018-04-08T06:49:23.993Z,5.20
2018-04-08T06:51:52.291Z,5.70
2018-04-08T06:54:20.563Z,5.30
2018-04-08T06:56:48.859Z,5.40
2018-04-08T06:59:17.152Z,5.60
2018-04-08T07:01:45.443Z,5.70
2018-04-08T07:04:13.712Z,5.78
2018-04-08T07:06:42.057Z,6.57
2018-04-08T07:09:10.319Z,6.60
2018-04-08T07:11:38.626Z,6.70
2018-04-08T07:14:06.883Z,6.57
2018-04-08T07:16:35.188Z,6.63
2018-04-08T07:19:03.450Z,6.37
2018-04-08T07:21:31.768Z,6.73
2018-04-08T07:24:00.051Z,6.67
2018-04-08T07:26:28.347Z,6.40
2018-04-08T07:28:56.655Z,6.70
2018-04-08T07:31:24.923Z,6.93
2018-04-08T07:33:53.244Z,8.40
2018-04-08T07:36:21.518Z,7.05
2018-04-08T07:38:49.795Z,7.53
2018-04-08T07:41:18.067Z,7.43
2018-04-08T07:43:46.379Z,7.10
2018-04-08T07:46:14.635Z,7.25
2018-04-08T07:48:42.928Z,7.83
2018-04-08T07:51:11.200Z,8.38
2018-04-08T07:53:39.493Z,8.47
2018-04-08T07:56:07.751Z,9.10
2018-04-08T07:58:36.061Z,9.10
2018-04-08T08:01:04.444Z,8.53
2018-04-08T08:03:32.735Z,8.80
2018-04-08T08:06:00.997Z,8.67
2018-04-08T08:08:29.324Z,9.00
2018-04-08T08:10:57.592Z,8.63
2018-04-08T08:13:25.929Z,9.27
2018-04-08T08:15:54.164Z,9.63
2018-04-08T08:18:22.699Z,9.27
2018-04-08T08:20:50.978Z,9.80
2018-04-08T08:23:19.268Z,8.80
2018-04-08T08:25:47.543Z,10.03
2018-04-08T08:28:15.848Z,9.40
2018-04-08T08:30:44.111Z,10.17
2018-04-08T08:33:12.418Z,9.60
2018-04-08T08:35:40.740Z,9.73
2018-04-08T08:38:08.968Z,10.55
2018-04-08T08:40:37.275Z,9.90
2018-04-08T08:43:05.556Z,9.80
2018-04-08T08:45:33.862Z,10.10
2018-04-08T08:48:02.366Z,10.80
2018-04-08T08:50:30.660Z,10.67
2018-04-08T08:52:58.927Z,10.87
2018-04-08T08:55:27.244Z,11.13
2018-04-08T08:57:55.555Z,11.03
2018-04-08T09:00:23.913Z,10.95
2018-04-08T09:02:52.152Z,10.70
2018-04-08T09:05:20.571Z,10.50
2018-04-08T09:07:48.862Z,10.53
2018-04-08T09:10:17.155Z,11.18
2018-04-08T09:12:45.444Z,10.30
2018-04-08T09:15:13.739Z,10.15
2018-04-08T09:17:42.024Z,9.83
2018-04-08T09:20:26.980Z,10.40
2018-04-08T09:25:56.501Z,10.40
2018-04-08T09:28:24.849Z,10.80
2018-04-08T09:30:53.129Z,10.60
2018-04-08T09:33:21.404Z,10.38
2018-04-08T09:35:49.753Z,10.30
2018-04-08T09:38:18.024Z,9.73
2018-04-08T09:40:46.327Z,10.67
2018-04-08T09:43:14.616Z,9.80
2018-04-08T09:45:42.915Z,10.57
2018-04-08T09:48:11.186Z,9.70
2018-04-08T09:50:39.539Z,10.73
2018-04-08T09:53:07.818Z,9.73
2018-04-08T09:55:36.087Z,10.80
2018-04-08T09:58:05.200Z,9.50
2018-04-08T10:00:35.149Z,10.57
2018-04-08T10:03:04.911Z,9.43
2018-04-08T10:05:33.303Z,9.40
2018-04-08T10:08:01.564Z,9.43
2018-04-08T10:10:29.865Z,9.13
2018-04-08T10:12:58.211Z,9.30
2018-04-08T10:15:26.473Z,9.17
2018-04-08T10:17:54.813Z,9.33
2018-04-08T10:20:23.071Z,9.63
2018-04-08T10:22:51.406Z,9.20
2018-04-08T10:25:20.172Z,8.73
2018-04-08T10:27:48.478Z,9.60
2018-04-08T10:30:16.805Z,9.40
2018-04-08T10:32:45.049Z,8.40
2018-04-08T10:35:13.327Z,8.23
2018-04-08T10:37:41.626Z,9.07
2018-04-08T10:40:09.924Z,9.15
2018-04-08T10:42:38.266Z,8.87
2018-04-08T10:45:06.547Z,7.90
2018-04-08T10:47:34.868Z,8.20
2018-04-08T10:50:03.176Z,7.73
2018-04-08T10:52:31.491Z,7.60
2018-04-08T10:54:59.846Z,7.97
2018-04-08T10:57:28.146Z,8.23
2018-04-08T10:59:56.419Z,8.50
2018-04-08T11:02:24.695Z,8.20
2018-04-08T11:04:53.045Z,9.93
2018-04-08T11:07:21.247Z,8.48
2018-04-08T11:09:49.581Z,7.50
2018-04-08T11:12:17.859Z,7.33
2018-04-08T11:14:46.171Z,6.60
2018-04-08T11:17:14.450Z,6.87
2018-04-08T11:19:42.737Z,7.33
2018-04-08T11:22:11.011Z,7.73
2018-04-08T11:24:39.338Z,7.57
2018-04-08T11:27:07.604Z,8.77
2018-04-08T11:29:35.933Z,8.15
2018-04-08T11:32:04.951Z,8.25
2018-04-08T11:34:33.252Z,6.80
2018-04-08T11:37:01.515Z,7.60
2018-04-08T11:39:29.817Z,8.23
2018-04-08T11:41:58.125Z,8.07
2018-04-08T11:44:26.514Z,7.90
2018-04-08T11:46:54.813Z,7.57
2018-04-08T11:49:23.181Z,7.62
2018-04-08T11:51:51.450Z,6.17
2018-04-08T11:54:19.731Z,5.75
2018-04-08T11:56:48.052Z,6.47
2018-04-08T11:59:16.311Z,5.07
2018-04-08T12:01:44.596Z,5.05
2018-04-08T12:04:12.875Z,4.93
2018-04-08T12:06:41.480Z,4.93
2018-04-08T12:09:10.031Z,5.43
2018-04-08T12:11:38.291Z,5.60
2018-04-08T12:14:06.559Z,4.53
2018-04-08T12:16:35.548Z,7.03
2018-04-08T12:19:03.833Z,8.10
2018-04-08T12:21:32.118Z,5.53
2018-04-08T12:24:00.422Z,4.13
2018-04-08T12:26:38.677Z,4.63
2018-04-08T12:29:06.975Z,7.37
2018-04-08T12:31:35.289Z,8.30
2018-04-08T12:34:03.549Z,5.50
2018-04-08T12:36:31.872Z,5.10
2018-04-08T12:39:00.159Z,10.53
2018-04-08T12:41:28.433Z,9.83
2018-04-08T12:43:56.716Z,8.33
2018-04-08T12:46:25.032Z,7.30
2018-04-08T12:48:53.311Z,6.23
2018-04-08T12:51:21.613Z,8.07
2018-04-08T12:53:49.906Z,9.80
2018-04-08T12:56:18.239Z,8.73
2018-04-08T12:58:46.504Z,6.43
2018-04-08T13:01:14.844Z,4.72
2018-04-08T13:03:43.129Z,5.27
2018-04-08T13:06:11.403Z,4.27
2018-04-08T13:08:39.691Z,3.60
2018-04-08T13:11:07.985Z,3.62
2018-04-08T13:13:36.291Z,4.63
2018-04-08T13:16:04.617Z,3.97
2018-04-08T13:18:32.915Z,4.57
2018-04-08T13:21:01.208Z,4.17
2018-04-08T13:23:29.528Z,4.30
2018-04-08T13:25:57.833Z,4.33
2018-04-08T13:28:26.117Z,3.47
2018-04-08T13:30:54.388Z,4.57
2018-04-08T13:33:22.687Z,4.77
2018-04-08T13:35:50.965Z,4.33
2018-04-08T13:38:19.288Z,4.40
2018-04-08T13:40:47.625Z,4.27
2018-04-08T13:43:15.977Z,5.10
2018-04-08T13:45:44.244Z,5.10
2018-04-08T13:48:12.530Z,3.90
2018-04-08T13:50:40.876Z,4.20
2018-04-08T13:53:09.235Z,3.60
2018-04-08T13:55:37.560Z,4.07
2018-04-08T13:58:05.862Z,5.07
2018-04-08T14:00:34.157Z,5.60
2018-04-08T14:03:02.432Z,5.90
2018-04-08T14:05:30.735Z,5.37
2018-04-08T14:07:59.019Z,5.00
2018-04-08T14:10:27.843Z,4.73
2018-04-08T14:12:56.110Z,5.40
2018-04-08T14:15:24.486Z,4.93
2018-04-08T14:17:52.762Z,4.67
2018-04-08T14:20:21.074Z,4.50
2018-04-08T14:22:49.348Z,3.67
2018-04-08T14:25:17.688Z,5.90
2018-04-08T14:27:45.973Z,5.00
2018-04-08T14:30:14.320Z,5.80
2018-04-08T14:32:42.619Z,5.60
2018-04-08T14:35:10.913Z,6.60
2018-04-08T14:37:39.181Z,5.67
2018-04-08T14:40:07.483Z,6.70
2018-04-08T14:42:35.783Z,5.63
2018-04-08T14:45:04.082Z,6.03
2018-04-08T14:47:32.394Z,6.20
2018-04-08T14:50:00.655Z,5.30
2018-04-08T14:52:28.934Z,5.70
2018-04-08T14:54:57.262Z,6.40
2018-04-08T14:57:25.663Z,5.40
2018-04-08T14:59:54.029Z,6.17
2018-04-08T15:02:22.338Z,6.03
2018-04-08T15:04:50.660Z,7.13
2018-04-08T15:07:18.972Z,7.15
2018-04-08T15:09:47.221Z,9.37
2018-04-08T15:12:15.532Z,6.50
2018-04-08T15:14:44.008Z,7.10
2018-04-08T15:17:12.302Z,7.03
2018-04-08T15:19:40.598Z,7.50
2018-04-08T15:22:09.032Z,7.67
2018-04-08T15:24:37.303Z,7.00
2018-04-08T15:27:05.730Z,6.57
2018-04-08T15:29:34.028Z,7.27
2018-04-08T15:32:02.315Z,7.20
2018-04-08T15:34:30.587Z,7.13
2018-04-08T15:36:58.887Z,7.97
2018-04-08T15:39:27.163Z,8.40
2018-04-08T15:41:55.514Z,8.60
2018-04-08T15:44:23.753Z,9.10
2018-04-08T15:46:52.048Z,11.27
2018-04-08T15:49:20.335Z,12.47
2018-04-08T15:51:48.650Z,15.00
2018-04-08T15:54:16.943Z,14.87
2018-04-08T15:56:45.249Z,15.03
2018-04-08T15:59:13.508Z,14.53
2018-04-08T16:01:41.763Z,14.07
2018-04-08T16:04:10.071Z,14.50
2018-04-08T16:06:38.365Z,14.23
2018-04-08T16:09:06.655Z,14.70
2018-04-08T16:11:34.932Z,14.27
2018-04-08T16:14:04.152Z,14.00
2018-04-08T16:16:32.415Z,14.73
2018-04-08T16:19:00.701Z,14.13
2018-04-08T16:21:28.979Z,13.83
2018-04-08T16:23:57.265Z,14.07
2018-04-08T16:26:25.539Z,13.53
2018-04-08T16:28:53.868Z,12.47
2018-04-08T16:31:22.225Z,13.93
2018-04-08T16:33:50.504Z,14.40
2018-04-08T16:36:18.795Z,13.37
2018-04-08T16:38:47.100Z,13.40
2018-04-08T16:41:15.397Z,13.87
2018-04-08T16:43:43.670Z,13.10
2018-04-08T16:46:11.999Z,12.67
2018-04-08T16:48:40.274Z,13.07
2018-04-08T16:51:08.551Z,12.30
2018-04-08T16:53:36.831Z,12.40
2018-04-08T16:56:05.176Z,15.70
2018-04-08T16:58:33.443Z,11.17
2018-04-08T17:01:01.780Z,11.10
2018-04-08T17:03:30.058Z,12.40
2018-04-08T17:05:58.340Z,12.33
2018-04-08T17:08:26.637Z,10.97
2018-04-08T17:10:54.960Z,12.00
2018-04-08T17:13:23.239Z,11.20
2018-04-08T17:15:51.560Z,11.47
2018-04-08T17:18:19.824Z,11.70
2018-04-08T17:20:48.134Z,11.23
2018-04-08T17:23:16.397Z,11.43
2018-04-08T17:25:44.784Z,12.37
2018-04-08T17:28:13.017Z,15.00
2018-04-08T17:30:41.502Z,11.40
2018-04-08T17:33:09.824Z,11.63
2018-04-08T17:35:38.156Z,11.47
2018-04-08T17:38:06.471Z,10.93
2018-04-08T17:40:34.745Z,10.77
2018-04-08T17:43:03.034Z,11.30
2018-04-08T17:45:31.299Z,10.87
2018-04-08T17:47:59.594Z,10.30
2018-04-08T17:50:27.900Z,10.33
2018-04-08T17:52:56.217Z,11.37
2018-04-08T17:55:24.547Z,10.17
2018-04-08T17:57:52.864Z,10.00
2018-04-08T18:00:21.177Z,11.30
2018-04-08T18:02:49.494Z,10.53
2018-04-08T18:05:17.765Z,10.63
2018-04-08T18:07:46.081Z,10.43
2018-04-08T18:10:14.352Z,8.70
2018-04-08T18:12:42.658Z,9.20
2018-04-08T18:15:10.905Z,9.47
2018-04-08T18:17:39.205Z,9.20
2018-04-08T18:20:07.461Z,8.50
2018-04-08T18:22:35.772Z,9.10
2018-04-08T18:25:04.089Z,8.23
2018-04-08T18:27:32.352Z,8.23
2018-04-08T18:30:00.931Z,8.30
2018-04-08T18:32:29.209Z,8.33
2018-04-08T18:34:57.494Z,9.90
2018-04-08T18:37:25.764Z,10.17
2018-04-08T18:39:54.060Z,10.03
2018-04-08T18:42:22.312Z,9.13
2018-04-08T18:44:50.627Z,8.70
2018-04-08T18:47:18.887Z,9.80
2018-04-08T18:49:47.198Z,8.27
2018-04-08T18:52:15.512Z,8.53
2018-04-08T18:54:43.820Z,7.60
2018-04-08T18:57:12.088Z,8.53
2018-04-08T18:59:40.392Z,6.73
2018-04-08T19:02:08.712Z,6.20
2018-04-08T19:04:37.000Z,6.33
2018-04-08T19:07:05.268Z,5.70
2018-04-08T19:09:33.558Z,6.17
2018-04-08T19:12:01.988Z,5.80
2018-04-08T19:14:35.834Z,5.80
2018-04-08T19:17:04.042Z,5.70
2018-04-08T19:19:32.341Z,5.63
2018-04-08T19:22:00.612Z,5.20
2018-04-08T19:24:28.896Z,6.60
2018-04-08T19:26:57.176Z,5.50
2018-04-08T19:29:25.448Z,6.00
2018-04-08T19:31:53.754Z,5.67
2018-04-08T19:34:22.033Z,5.67
2018-04-08T19:36:50.339Z,4.93
2018-04-08T19:39:18.584Z,6.10
2018-04-08T19:41:46.873Z,5.90
2018-04-08T19:44:15.133Z,4.90
2018-04-08T19:46:43.445Z,4.77
2018-04-08T19:49:11.692Z,4.53
2018-04-08T19:51:39.981Z,5.67
2018-04-08T19:54:08.240Z,4.90
2018-04-08T19:56:36.522Z,5.20
2018-04-08T19:59:04.782Z,5.53
2018-04-08T20:01:33.203Z,5.63
2018-04-08T20:04:01.441Z,5.50
2018-04-08T20:06:29.729Z,5.20
2018-04-08T20:08:58.024Z,4.83
2018-04-08T20:11:26.314Z,6.50
2018-04-08T20:13:54.580Z,5.00
2018-04-08T20:16:22.873Z,5.00
2018-04-08T20:18:51.440Z,4.80
2018-04-08T20:21:19.860Z,5.10
2018-04-08T20:23:48.136Z,6.00
2018-04-08T20:26:16.416Z,4.70
2018-04-08T20:28:44.720Z,5.40
2018-04-08T20:31:12.964Z,5.40
2018-04-08T20:33:41.261Z,5.80
2018-04-08T20:36:09.520Z,5.80
2018-04-08T20:38:37.852Z,4.70
2018-04-08T20:41:06.129Z,5.70
2018-04-08T20:43:34.416Z,5.70
2018-04-08T20:46:02.680Z,5.33
2018-04-08T20:48:30.970Z,5.20
2018-04-08T20:50:59.231Z,5.30
2018-04-08T20:53:27.554Z,4.97
2018-04-08T20:55:56.515Z,5.40
2018-04-08T20:58:24.867Z,5.17
2018-04-08T21:00:53.127Z,5.50
2018-04-08T21:03:21.497Z,5.50
2018-04-08T21:05:49.711Z,5.37
2018-04-08T21:08:17.999Z,5.03
2018-04-08T21:10:46.292Z,5.20
2018-04-08T21:13:14.617Z,3.90
2018-04-08T21:15:42.899Z,4.20
2018-04-08T21:18:11.381Z,4.97
2018-04-08T21:20:39.664Z,5.40
2018-04-08T21:23:07.964Z,5.23
2018-04-08T21:25:36.312Z,4.90
2018-04-08T21:28:05.553Z,5.37
2018-04-08T21:30:33.898Z,5.20
2018-04-08T21:33:02.150Z,5.07
2018-04-08T21:35:30.415Z,4.90
2018-04-08T21:37:58.708Z,5.07
2018-04-08T21:40:27.005Z,5.03
2018-04-08T21:42:55.292Z,5.03
2018-04-08T21:45:23.603Z,5.30
2018-04-08T21:47:51.867Z,4.87
2018-04-08T21:50:21.076Z,5.10
2018-04-08T21:52:49.336Z,5.60
2018-04-08T21:55:17.643Z,5.68
2018-04-08T21:57:45.945Z,6.10
2018-04-08T22:00:14.228Z,6.10
2018-04-08T22:02:42.500Z,6.00
2018-04-08T22:05:10.807Z,5.93
2018-04-08T22:07:39.063Z,5.80
2018-04-08T22:10:07.368Z,5.80
2018-04-08T22:12:35.638Z,6.33
2018-04-08T22:15:04.781Z,5.43
2018-04-08T22:17:33.074Z,6.20
2018-04-08T22:20:01.335Z,5.87
2018-04-08T22:22:29.922Z,5.77
2018-04-08T22:24:58.208Z,5.80
2018-04-08T22:27:26.503Z,5.40
2018-04-08T22:29:54.780Z,5.67
2018-04-08T22:32:23.058Z,5.55
2018-04-08T22:34:51.892Z,6.53
2018-04-08T22:37:20.183Z,5.70
2018-04-08T22:39:48.444Z,5.53
2018-04-08T22:42:16.752Z,5.70
2018-04-08T22:44:45.017Z,5.30
2018-04-08T22:47:13.307Z,5.30
2018-04-08T22:49:41.579Z,5.40
2018-04-08T22:52:09.847Z,5.33
2018-04-08T22:54:38.139Z,6.00
2018-04-08T22:57:06.433Z,5.70
2018-04-08T22:59:34.755Z,5.80
2018-04-08T23:02:03.280Z,6.10
2018-04-08T23:04:31.556Z,5.23
2018-04-08T23:06:59.911Z,6.00
2018-04-08T23:09:28.484Z,6.80
2018-04-08T23:11:56.818Z,6.33
2018-04-08T23:14:25.081Z,5.67
2018-04-08T23:16:53.349Z,5.80
2018-04-08T23:19:21.646Z,6.25
2018-04-08T23:21:49.906Z,6.40
2018-04-08T23:24:18.232Z,5.57
2018-04-08T23:26:46.511Z,6.57
2018-04-08T23:29:14.811Z,5.97
2018-04-08T23:31:43.101Z,6.70
2018-04-08T23:34:11.375Z,5.60
2018-04-08T23:36:39.654Z,5.83
2018-04-08T23:39:07.948Z,6.10
2018-04-08T23:41:36.205Z,5.93
2018-04-08T23:44:04.967Z,5.70
2018-04-08T23:46:33.253Z,6.87
2018-04-08T23:49:01.559Z,6.33
2018-04-08T23:51:29.816Z,5.43
2018-04-08T23:53:58.103Z,5.80
2018-04-08T23:56:26.372Z,5.73
2018-04-08T23:58:54.660Z,5.97
